Terminal Aerodrome Forecast
Issued by NWS Nashville, TN

Home | Current Version | Previous Version | Text Only | Print | Product List | Glossary On
Versions: 1 2 3 4 5 6 7 8 9 10 11 12 13 14 15 16 17 18 19 20 21 22
000
FTUS44 KOHX 272135 AAF
TAFBNA
TAF AMD
KBNA 272135Z 2722/2818 VRB06KT P6SM VCTS SCT040CB BKN070
     FM272230 11003KT P6SM BKN100 BKN250
     FM281000 10002KT 4SM BR SKC
     FM281300 14003KT P6SM SKC=

USA.gov is the U.S. government's official web portal to all federal, state and local government web resources and services.